Time;durP1;ratioP1;P1;durP2;ratioP2;P2;SDS_P1;SDS_P2;PMS_P1;PMS_P2;Temp;Humidity;BMP_temperature;BMP_pressure;BME280_temperature;BME280_humidity;BME280_pressure;Samples;Min_cycle;Max_cycle;Signal;HPM_P1;HPM_P2
2022/10/12 00:00:14;;;;;;;7.85;5.18;;;;;;;;;;4972555;28;20379;-76
2022/10/12 00:02:41;;;;;;;10.63;5.65;;;;;;;;;;4968455;28;20035;-76
2022/10/12 00:05:07;;;;;;;9.93;4.93;;;;;;;;;;4953500;28;20055;-76
2022/10/12 00:07:33;;;;;;;12.30;5.72;;;;;;;;;;4953385;29;20062;-76
2022/10/12 00:09:59;;;;;;;7.78;5.32;;;;;;;;;;4953336;29;20486;-76
2022/10/12 00:12:25;;;;;;;12.77;6.03;;;;;;;;;;4968910;28;20047;-76
2022/10/12 00:14:51;;;;;;;10.88;6.00;;;;;;;;;;4952118;28;20051;-76
2022/10/12 00:17:17;;;;;;;9.90;5.22;;;;;;;;;;4953971;28;20093;-76
2022/10/12 00:19:43;;;;;;;13.70;5.88;;;;;;;;;;4972406;28;20120;-76
2022/10/12 00:22:09;;;;;;;9.65;4.78;;;;;;;;;;4958835;28;20113;-76
2022/10/12 00:24:35;;;;;;;11.20;5.85;;;;;;;;;;4953069;29;20052;-76
2022/10/12 00:27:01;;;;;;;11.43;5.50;;;;;;;;;;4953542;28;20039;-76
2022/10/12 00:29:27;;;;;;;9.98;4.90;;;;;;;;;;4956547;28;20175;-76
2022/10/12 00:31:53;;;;;;;10.27;5.28;;;;;;;;;;4961101;28;20453;-76
2022/10/12 00:34:19;;;;;;;11.88;5.80;;;;;;;;;;4953329;29;20047;-76
2022/10/12 00:36:45;;;;;;;9.98;5.63;;;;;;;;;;4953619;28;20043;-76
2022/10/12 00:39:12;;;;;;;11.25;6.70;;;;;;;;;;4953696;28;20464;-76
2022/10/12 00:41:40;;;;;;;11.00;6.28;;;;;;;;;;4972601;28;20061;-76
2022/10/12 00:44:24;;;;;;;11.93;6.07;;;;;;;;;;4971967;28;20046;-76
2022/10/12 00:46:51;;;;;;;15.00;7.18;;;;;;;;;;4971664;28;20168;-76
2022/10/12 00:49:20;;;;;;;14.57;6.57;;;;;;;;;;4970368;28;20054;-76
2022/10/12 00:51:48;;;;;;;13.57;6.53;;;;;;;;;;4952769;29;20470;-76
2022/10/12 00:54:17;;;;;;;14.65;6.53;;;;;;;;;;4954099;28;20050;-76
2022/10/12 00:56:44;;;;;;;13.00;6.57;;;;;;;;;;4972172;28;20093;-76
2022/10/12 00:59:12;;;;;;;12.05;6.32;;;;;;;;;;4971988;28;20039;-76
2022/10/12 01:01:38;;;;;;;11.55;6.82;;;;;;;;;;4972137;28;20099;-76
2022/10/12 01:04:05;;;;;;;10.90;6.32;;;;;;;;;;4972030;28;20043;-76
2022/10/12 01:06:31;;;;;;;12.68;6.00;;;;;;;;;;4972642;28;20502;-76
2022/10/12 01:08:57;;;;;;;13.95;6.30;;;;;;;;;;4971875;28;20050;-76
2022/10/12 01:11:24;;;;;;;12.82;6.82;;;;;;;;;;4971499;28;20176;-76
2022/10/12 01:13:50;;;;;;;13.27;7.47;;;;;;;;;;4970713;28;20043;-76
2022/10/12 01:16:22;;;;;;;14.02;6.70;;;;;;;;;;4952889;28;20049;-76
2022/10/12 01:19:06;;;;;;;12.98;6.43;;;;;;;;;;4955370;28;20047;-76
2022/10/12 01:21:36;;;;;;;9.05;6.13;;;;;;;;;;4971346;28;20502;-76
2022/10/12 01:24:27;;;;;;;13.93;6.60;;;;;;;;;;4972294;28;20102;-76
2022/10/12 01:26:58;;;;;;;13.10;6.53;;;;;;;;;;4952682;28;20390;-76
2022/10/12 01:29:43;;;;;;;15.45;7.40;;;;;;;;;;4960145;28;20058;-76
2022/10/12 01:32:09;;;;;;;13.27;6.72;;;;;;;;;;4971524;28;20050;-76
2022/10/12 01:34:52;;;;;;;10.98;6.75;;;;;;;;;;4972004;28;20104;-76
2022/10/12 01:37:18;;;;;;;9.40;5.70;;;;;;;;;;4971147;28;20083;-76
2022/10/12 01:39:53;;;;;;;13.27;6.93;;;;;;;;;;4952169;28;20105;-76
2022/10/12 01:42:20;;;;;;;11.95;6.38;;;;;;;;;;4952122;28;20051;-76
2022/10/12 01:44:47;;;;;;;13.02;7.20;;;;;;;;;;4952123;28;20168;-76
2022/10/12 01:47:13;;;;;;;14.35;6.60;;;;;;;;;;4952449;28;20058;-76
2022/10/12 01:49:39;;;;;;;13.43;6.97;;;;;;;;;;4952025;28;20047;-76
2022/10/12 01:52:25;;;;;;;14.48;7.45;;;;;;;;;;4960517;28;20059;-76
2022/10/12 01:54:51;;;;;;;12.18;6.65;;;;;;;;;;4952081;28;20051;-76
2022/10/12 01:57:31;;;;;;;13.52;7.68;;;;;;;;;;4967745;28;20054;-76
2022/10/12 02:00:00;;;;;;;10.32;6.65;;;;;;;;;;4974736;28;20047;-76
2022/10/12 02:02:26;;;;;;;12.75;6.82;;;;;;;;;;4958696;28;20047;-76
2022/10/12 02:04:58;;;;;;;11.55;7.28;;;;;;;;;;4955701;29;20050;-77
2022/10/12 02:07:37;;;;;;;16.10;7.60;;;;;;;;;;4967658;28;20046;-76
2022/10/12 02:10:04;;;;;;;15.70;7.20;;;;;;;;;;4972448;28;20054;-76
2022/10/12 02:12:31;;;;;;;13.18;7.28;;;;;;;;;;4972694;28;20047;-76
2022/10/12 02:14:59;;;;;;;11.20;7.35;;;;;;;;;;4955100;29;20043;-76
2022/10/12 02:17:26;;;;;;;13.60;7.80;;;;;;;;;;4954836;28;20097;-76
2022/10/12 02:19:56;;;;;;;13.90;7.82;;;;;;;;;;4955027;28;20075;-76
2022/10/12 02:22:25;;;;;;;13.35;7.35;;;;;;;;;;4953694;28;20055;-76
2022/10/12 02:24:52;;;;;;;14.13;7.13;;;;;;;;;;4953604;28;20047;-76
2022/10/12 02:27:20;;;;;;;16.67;7.72;;;;;;;;;;4954500;28;20437;-76
2022/10/12 02:29:47;;;;;;;14.45;7.00;;;;;;;;;;4973624;28;20082;-76
2022/10/12 02:32:26;;;;;;;13.10;7.65;;;;;;;;;;4972961;28;20082;-76
2022/10/12 02:34:52;;;;;;;15.00;7.53;;;;;;;;;;4954442;28;20053;-76
2022/10/12 02:37:21;;;;;;;14.43;7.32;;;;;;;;;;4954636;28;20039;-76
2022/10/12 02:39:53;;;;;;;12.52;6.90;;;;;;;;;;4954554;28;20089;-76
2022/10/12 02:42:21;;;;;;;13.05;7.57;;;;;;;;;;4955002;28;20126;-76
2022/10/12 02:44:48;;;;;;;9.93;7.10;;;;;;;;;;4972992;28;20482;-76
2022/10/12 02:47:15;;;;;;;10.95;6.85;;;;;;;;;;4974193;28;20051;-76
2022/10/12 02:49:42;;;;;;;13.27;7.40;;;;;;;;;;4974000;28;20069;-76
2022/10/12 02:52:09;;;;;;;11.70;7.05;;;;;;;;;;4973865;28;20078;-76
2022/10/12 02:54:35;;;;;;;14.68;7.32;;;;;;;;;;4972556;28;20089;-76
2022/10/12 02:57:01;;;;;;;14.02;7.28;;;;;;;;;;4974222;28;20050;-76
2022/10/12 02:59:27;;;;;;;10.95;7.13;;;;;;;;;;4957423;28;20054;-76
2022/10/12 03:01:53;;;;;;;10.73;6.60;;;;;;;;;;4954246;28;20055;-76
2022/10/12 03:04:19;;;;;;;11.15;6.95;;;;;;;;;;4954232;29;20085;-76
2022/10/12 03:06:45;;;;;;;12.70;6.60;;;;;;;;;;4954527;29;20039;-76
2022/10/12 03:09:13;;;;;;;12.32;7.15;;;;;;;;;;4963770;28;20386;-76
2022/10/12 03:11:42;;;;;;;12.63;6.70;;;;;;;;;;4954182;29;20051;-76
2022/10/12 03:14:10;;;;;;;10.02;6.45;;;;;;;;;;4968206;28;20127;-76
2022/10/12 03:16:36;;;;;;;14.45;6.95;;;;;;;;;;4973468;28;20089;-76
2022/10/12 03:19:03;;;;;;;9.05;6.28;;;;;;;;;;4960429;28;20044;-76
2022/10/12 03:21:29;;;;;;;12.18;6.78;;;;;;;;;;4953179;29;20066;-76
2022/10/12 03:23:55;;;;;;;12.98;7.22;;;;;;;;;;4954459;28;20062;-76
2022/10/12 03:26:21;;;;;;;9.38;6.50;;;;;;;;;;4954461;28;20136;-76
2022/10/12 03:28:47;;;;;;;11.77;7.30;;;;;;;;;;4964795;28;20271;-76
2022/10/12 03:31:13;;;;;;;14.38;7.35;;;;;;;;;;4973348;28;20146;-76
2022/10/12 03:33:39;;;;;;;12.75;7.07;;;;;;;;;;4963555;28;20461;-76
2022/10/12 03:36:05;;;;;;;12.45;6.70;;;;;;;;;;4954120;29;20493;-76
2022/10/12 03:38:31;;;;;;;13.35;7.13;;;;;;;;;;4962571;28;20039;-76
2022/10/12 03:40:57;;;;;;;13.32;6.72;;;;;;;;;;4973640;28;20047;-76
2022/10/12 03:43:23;;;;;;;12.80;7.05;;;;;;;;;;4971731;28;20431;-76
2022/10/12 03:45:51;;;;;;;13.35;7.03;;;;;;;;;;4972193;28;20046;-76
2022/10/12 03:48:17;;;;;;;12.88;7.20;;;;;;;;;;4966171;28;20109;-76
2022/10/12 03:50:47;;;;;;;11.00;7.18;;;;;;;;;;4953367;28;20494;-76
2022/10/12 03:53:13;;;;;;;12.50;7.30;;;;;;;;;;4956069;28;20047;-76
2022/10/12 03:55:39;;;;;;;13.45;7.93;;;;;;;;;;4971943;28;20096;-76
2022/10/12 03:58:05;;;;;;;16.67;7.75;;;;;;;;;;4967999;28;20043;-76
2022/10/12 04:00:31;;;;;;;15.85;7.32;;;;;;;;;;4953714;28;20235;-76
2022/10/12 04:02:57;;;;;;;15.10;7.25;;;;;;;;;;4953277;29;20075;-76
2022/10/12 04:05:23;;;;;;;10.27;7.05;;;;;;;;;;4955562;28;20054;-76
2022/10/12 04:07:50;;;;;;;11.80;7.28;;;;;;;;;;4961526;28;20051;-76
2022/10/12 04:10:16;;;;;;;14.27;6.78;;;;;;;;;;4953768;28;20489;-76
2022/10/12 04:12:42;;;;;;;13.82;7.22;;;;;;;;;;4961651;28;20046;-76
2022/10/12 04:15:08;;;;;;;12.68;7.60;;;;;;;;;;4972598;28;20065;-76
2022/10/12 04:17:35;;;;;;;21.75;9.73;;;;;;;;;;4971497;28;20123;-76
2022/10/12 04:20:01;;;;;;;15.63;7.90;;;;;;;;;;4952626;28;20051;-76
2022/10/12 04:22:27;;;;;;;19.02;8.60;;;;;;;;;;4951682;29;20055;-76
2022/10/12 04:24:53;;;;;;;17.33;9.13;;;;;;;;;;4953883;29;20051;-76
2022/10/12 04:27:19;;;;;;;20.10;8.48;;;;;;;;;;4953685;28;20051;-76
2022/10/12 04:29:45;;;;;;;17.10;9.45;;;;;;;;;;4971998;28;20112;-76
2022/10/12 04:32:11;;;;;;;15.75;8.40;;;;;;;;;;4972325;28;20092;-76
2022/10/12 04:34:37;;;;;;;17.80;9.43;;;;;;;;;;4972031;28;20671;-76
2022/10/12 04:37:03;;;;;;;18.25;9.80;;;;;;;;;;4967558;28;20486;-76
2022/10/12 04:39:29;;;;;;;19.88;9.55;;;;;;;;;;4948506;28;20646;-76
2022/10/12 04:41:55;;;;;;;18.98;8.93;;;;;;;;;;4953389;28;20552;-76
2022/10/12 04:44:22;;;;;;;15.20;7.45;;;;;;;;;;4951236;28;20048;-76
2022/10/12 04:46:48;;;;;;;14.15;7.55;;;;;;;;;;4952912;28;20047;-76
2022/10/12 04:49:15;;;;;;;10.23;6.78;;;;;;;;;;4963900;28;20044;-76
2022/10/12 04:51:41;;;;;;;12.07;6.47;;;;;;;;;;4959811;28;20451;-76
2022/10/12 04:54:07;;;;;;;15.13;7.05;;;;;;;;;;4956075;28;20050;-76
2022/10/12 04:56:33;;;;;;;13.35;6.07;;;;;;;;;;4953433;29;20047;-76
2022/10/12 04:58:59;;;;;;;17.65;6.97;;;;;;;;;;4952823;29;20048;-76
2022/10/12 05:01:25;;;;;;;12.73;6.68;;;;;;;;;;4953470;29;20133;-76
2022/10/12 05:03:51;;;;;;;16.77;6.55;;;;;;;;;;4952195;29;20047;-76
2022/10/12 05:06:17;;;;;;;13.02;6.55;;;;;;;;;;4959087;28;20074;-76
2022/10/12 05:08:43;;;;;;;18.85;7.20;;;;;;;;;;4959297;28;20047;-76
2022/10/12 05:11:09;;;;;;;9.45;6.40;;;;;;;;;;4952796;29;20052;-76
2022/10/12 05:13:35;;;;;;;16.95;7.05;;;;;;;;;;4955644;28;20043;-76
2022/10/12 05:16:01;;;;;;;12.52;6.65;;;;;;;;;;4951237;29;20110;-76
2022/10/12 05:18:27;;;;;;;10.45;6.22;;;;;;;;;;4963241;28;20155;-76
2022/10/12 05:20:53;;;;;;;10.43;6.00;;;;;;;;;;4953537;28;20143;-75
2022/10/12 05:23:19;;;;;;;16.70;8.68;;;;;;;;;;4953129;28;20055;-76
2022/10/12 05:25:45;;;;;;;14.52;7.05;;;;;;;;;;4953709;28;20062;-76
2022/10/12 05:28:11;;;;;;;13.75;6.70;;;;;;;;;;4952989;28;20055;-75
2022/10/12 05:30:38;;;;;;;11.85;6.53;;;;;;;;;;4970619;28;20139;-75
2022/10/12 05:33:04;;;;;;;11.80;6.43;;;;;;;;;;4959882;28;20046;-75
2022/10/12 05:35:30;;;;;;;12.75;6.72;;;;;;;;;;4954491;29;20097;-76
2022/10/12 05:37:56;;;;;;;13.48;7.18;;;;;;;;;;4955341;28;20054;-76
2022/10/12 05:40:22;;;;;;;14.20;7.95;;;;;;;;;;4954943;28;20057;-76
2022/10/12 05:42:48;;;;;;;13.27;6.85;;;;;;;;;;4965011;28;20050;-76
2022/10/12 05:45:15;;;;;;;16.55;7.47;;;;;;;;;;4961947;28;20043;-75
2022/10/12 05:47:41;;;;;;;14.50;8.10;;;;;;;;;;4954778;28;20570;-76
2022/10/12 05:50:07;;;;;;;15.80;8.30;;;;;;;;;;4960510;28;20122;-76
2022/10/12 05:52:33;;;;;;;15.15;7.45;;;;;;;;;;4974473;28;20042;-75
2022/10/12 05:54:59;;;;;;;16.10;7.35;;;;;;;;;;4955830;29;20047;-75
2022/10/12 05:57:25;;;;;;;15.15;7.55;;;;;;;;;;4954209;28;20047;-76
2022/10/12 05:59:51;;;;;;;9.70;6.45;;;;;;;;;;4954826;28;20054;-76
2022/10/12 06:02:17;;;;;;;13.82;7.35;;;;;;;;;;4955459;28;20047;-75
2022/10/12 06:04:43;;;;;;;16.02;7.38;;;;;;;;;;4955910;28;20149;-76
2022/10/12 06:07:12;;;;;;;11.27;6.57;;;;;;;;;;4955879;28;20051;-76
2022/10/12 06:09:38;;;;;;;10.65;6.20;;;;;;;;;;4971748;28;20046;-76
2022/10/12 06:12:05;;;;;;;13.88;6.63;;;;;;;;;;4969226;28;20043;-76
2022/10/12 06:14:31;;;;;;;13.55;6.72;;;;;;;;;;4955154;28;20049;-76
2022/10/12 06:16:57;;;;;;;14.57;7.30;;;;;;;;;;4955420;28;20124;-77
2022/10/12 06:19:23;;;;;;;12.40;6.68;;;;;;;;;;4968416;28;20122;-77
2022/10/12 06:21:49;;;;;;;13.02;7.18;;;;;;;;;;4974590;28;20051;-77
2022/10/12 06:24:15;;;;;;;13.55;7.22;;;;;;;;;;4969635;28;20054;-77
2022/10/12 06:26:41;;;;;;;14.23;7.93;;;;;;;;;;4954972;28;20122;-77
2022/10/12 06:29:07;;;;;;;12.93;6.88;;;;;;;;;;4956621;29;20043;-78
2022/10/12 06:31:33;;;;;;;12.10;6.97;;;;;;;;;;4955941;28;20047;-77
2022/10/12 06:33:59;;;;;;;11.52;7.07;;;;;;;;;;4956119;28;20146;-77
2022/10/12 06:36:26;;;;;;;15.77;7.30;;;;;;;;;;4955891;28;20134;-78
2022/10/12 06:38:52;;;;;;;14.13;7.10;;;;;;;;;;4954898;29;20051;-78
2022/10/12 06:41:18;;;;;;;13.65;7.90;;;;;;;;;;4954459;29;20471;-78
2022/10/12 06:43:44;;;;;;;16.80;8.20;;;;;;;;;;4954713;29;20051;-78
2022/10/12 06:46:10;;;;;;;15.23;7.88;;;;;;;;;;4967411;28;20047;-78
2022/10/12 06:48:36;;;;;;;16.77;7.60;;;;;;;;;;4972646;28;20168;-77
2022/10/12 06:51:03;;;;;;;12.23;7.32;;;;;;;;;;4974066;28;20046;-78
2022/10/12 06:53:31;;;;;;;12.68;8.18;;;;;;;;;;4973721;28;20054;-77
2022/10/12 06:55:57;;;;;;;20.85;8.77;;;;;;;;;;4962852;28;20070;-77
2022/10/12 06:58:23;;;;;;;17.35;7.90;;;;;;;;;;4956902;28;20485;-76
2022/10/12 07:00:50;;;;;;;14.60;7.65;;;;;;;;;;4963921;28;20046;-76
2022/10/12 07:03:16;;;;;;;17.55;8.00;;;;;;;;;;4955172;28;20043;-77
2022/10/12 07:05:42;;;;;;;18.23;8.82;;;;;;;;;;4960986;28;20126;-77
2022/10/12 07:08:08;;;;;;;20.27;9.45;;;;;;;;;;4973584;28;20133;-77
2022/10/12 07:10:34;;;;;;;19.85;11.90;;;;;;;;;;4965224;28;20523;-77
2022/10/12 07:13:00;;;;;;;24.95;11.35;;;;;;;;;;4969795;28;20043;-77
2022/10/12 07:15:26;;;;;;;24.17;11.73;;;;;;;;;;4954524;29;20051;-77
2022/10/12 07:17:52;;;;;;;25.20;12.25;;;;;;;;;;4954132;29;20050;-77
2022/10/12 07:20:18;;;;;;;24.77;13.20;;;;;;;;;;4958280;28;20066;-77
2022/10/12 07:22:45;;;;;;;27.20;13.10;;;;;;;;;;4968515;28;20614;-77
2022/10/12 07:25:11;;;;;;;28.25;14.52;;;;;;;;;;4967920;28;20126;-75
2022/10/12 07:27:37;;;;;;;26.42;13.73;;;;;;;;;;4955002;28;20039;-76
2022/10/12 07:30:03;;;;;;;32.03;13.15;;;;;;;;;;4954364;28;20103;-78
2022/10/12 07:32:29;;;;;;;21.60;11.07;;;;;;;;;;4953562;28;20436;-77
2022/10/12 07:34:55;;;;;;;18.83;10.52;;;;;;;;;;4953812;28;20047;-80
2022/10/12 07:37:21;;;;;;;20.15;9.68;;;;;;;;;;4953696;28;20081;-78
2022/10/12 07:39:48;;;;;;;19.05;11.48;;;;;;;;;;4953491;29;20490;-76
2022/10/12 07:42:14;;;;;;;21.55;10.00;;;;;;;;;;4955954;28;20047;-76
2022/10/12 07:44:40;;;;;;;26.58;10.48;;;;;;;;;;4968618;28;20042;-78
2022/10/12 07:47:06;;;;;;;20.58;10.27;;;;;;;;;;4953984;29;20378;-77
2022/10/12 07:49:32;;;;;;;17.33;9.63;;;;;;;;;;4968371;28;20057;-78
2022/10/12 07:51:58;;;;;;;18.95;8.75;;;;;;;;;;4969976;28;20079;-78
2022/10/12 07:54:24;;;;;;;17.52;8.25;;;;;;;;;;4967594;28;20074;-77
2022/10/12 07:56:50;;;;;;;14.82;7.30;;;;;;;;;;4952224;28;20405;-78
2022/10/12 07:59:16;;;;;;;16.67;6.97;;;;;;;;;;4962006;28;20096;-78
2022/10/12 08:01:42;;;;;;;15.68;7.70;;;;;;;;;;4953875;29;20102;-78
2022/10/12 08:04:09;;;;;;;18.48;7.40;;;;;;;;;;4956572;28;20042;-78
2022/10/12 08:06:35;;;;;;;16.33;7.53;;;;;;;;;;4952830;28;20047;-78
2022/10/12 08:09:01;;;;;;;15.30;7.07;;;;;;;;;;4965032;28;20058;-78
2022/10/12 08:11:28;;;;;;;12.77;7.00;;;;;;;;;;4952942;28;20066;-78
2022/10/12 08:13:54;;;;;;;13.25;6.63;;;;;;;;;;4952925;28;20070;-78
2022/10/12 08:16:23;;;;;;;12.18;6.63;;;;;;;;;;4957054;28;20039;-78
2022/10/12 08:18:50;;;;;;;13.73;7.00;;;;;;;;;;4971929;28;20089;-78
2022/10/12 08:21:16;;;;;;;16.38;6.10;;;;;;;;;;4946807;28;20055;-77
2022/10/12 08:23:43;;;;;;;10.25;5.90;;;;;;;;;;4953200;28;20054;-78
2022/10/12 08:26:10;;;;;;;11.88;7.70;;;;;;;;;;4952891;28;20439;-77
2022/10/12 08:28:36;;;;;;;14.73;5.78;;;;;;;;;;4953240;28;20047;-81
2022/10/12 08:31:09;;;;;;;13.02;5.95;;;;;;;;;;4972433;28;20046;-75
2022/10/12 08:33:35;;;;;;;12.25;5.00;;;;;;;;;;4972868;28;20130;-77
2022/10/12 08:36:02;;;;;;;14.85;6.20;;;;;;;;;;4971106;28;20557;-78
2022/10/12 08:38:28;;;;;;;12.77;5.22;;;;;;;;;;4973015;28;20090;-77
2022/10/12 08:40:58;;;;;;;11.43;5.28;;;;;;;;;;4971988;28;20233;-77
2022/10/12 08:43:34;;;;;;;15.23;5.95;;;;;;;;;;4952938;28;20053;-77
2022/10/12 08:46:01;;;;;;;11.20;5.72;;;;;;;;;;4952595;28;20429;-77
2022/10/12 08:48:30;;;;;;;7.57;4.90;;;;;;;;;;4952824;28;20506;-77
2022/10/12 08:51:01;;;;;;;11.07;5.95;;;;;;;;;;4953259;28;20043;-77
2022/10/12 08:53:27;;;;;;;9.48;5.03;;;;;;;;;;4953310;28;20043;-78
2022/10/12 08:55:53;;;;;;;9.52;5.10;;;;;;;;;;4952835;28;20066;-77
2022/10/12 08:58:31;;;;;;;12.88;5.07;;;;;;;;;;4957358;28;20049;-77
2022/10/12 09:00:58;;;;;;;11.70;5.25;;;;;;;;;;4971971;28;20498;-77
2022/10/12 09:03:24;;;;;;;12.13;4.93;;;;;;;;;;4971568;28;20514;-77
2022/10/12 09:06:11;;;;;;;12.25;5.15;;;;;;;;;;4972087;28;20043;-77
2022/10/12 09:08:40;;;;;;;7.85;5.05;;;;;;;;;;4972268;28;20053;-77
2022/10/12 09:11:09;;;;;;;11.55;4.65;;;;;;;;;;4965798;28;20047;-80
2022/10/12 09:13:42;;;;;;;10.20;4.45;;;;;;;;;;4959192;28;20047;-77
2022/10/12 09:16:11;;;;;;;10.07;4.38;;;;;;;;;;4970937;28;20051;-75
2022/10/12 09:18:41;;;;;;;10.18;4.43;;;;;;;;;;4953876;28;20070;-77
2022/10/12 09:21:17;;;;;;;13.45;5.18;;;;;;;;;;4934644;28;20066;-77
2022/10/12 09:23:43;;;;;;;;;;;;;;;;;;4953071;28;20061;-76
2022/10/12 09:26:12;;;;;;;9.88;3.85;;;;;;;;;;4959646;28;19928;-77
2022/10/12 09:28:40;;;;;;;11.32;4.00;;;;;;;;;;4958754;28;20139;-77
2022/10/12 09:31:13;;;;;;;10.18;4.20;;;;;;;;;;4952760;28;20074;-80
2022/10/12 09:33:55;;;;;;;10.75;3.90;;;;;;;;;;4952835;28;20047;-81
2022/10/12 09:36:22;;;;;;;11.60;4.05;;;;;;;;;;4952450;28;20070;-80
2022/10/12 09:38:49;;;;;;;9.90;3.55;;;;;;;;;;4954736;28;20525;-76
2022/10/12 09:41:27;;;;;;;10.70;3.35;;;;;;;;;;4952073;28;20047;-82
2022/10/12 09:43:58;;;;;;;10.77;3.67;;;;;;;;;;4965243;28;20051;-77
2022/10/12 09:46:42;;;;;;;8.13;3.30;;;;;;;;;;4952323;28;20059;-77
2022/10/12 09:49:08;;;;;;;9.68;3.42;;;;;;;;;;4967044;28;20039;-77
2022/10/12 09:51:34;;;;;;;7.75;3.20;;;;;;;;;;4971348;28;20071;-76
2022/10/12 09:54:02;;;;;;;10.75;3.47;;;;;;;;;;4969453;28;20070;-81
2022/10/12 09:56:43;;;;;;;16.27;3.47;;;;;;;;;;4971980;28;20046;-77
2022/10/12 09:59:27;;;;;;;8.88;3.50;;;;;;;;;;4971465;28;20373;-78
2022/10/12 10:01:57;;;;;;;10.25;3.35;;;;;;;;;;4970996;28;20050;-77
2022/10/12 10:04:24;;;;;;;8.52;3.10;;;;;;;;;;4971092;28;20449;-77
2022/10/12 10:06:50;;;;;;;11.43;3.75;;;;;;;;;;4971735;28;20043;-79
2022/10/12 10:09:32;;;;;;;14.63;3.70;;;;;;;;;;4971226;28;20039;-77
2022/10/12 10:12:11;;;;;;;12.52;4.65;;;;;;;;;;4951569;28;20470;-76
2022/10/12 10:14:37;;;;;;;7.78;3.33;;;;;;;;;;4951755;28;20051;-76
2022/10/12 10:17:03;;;;;;;12.93;3.80;;;;;;;;;;4951490;28;20157;-77
2022/10/12 10:19:29;;;;;;;11.30;3.75;;;;;;;;;;4953795;28;20108;-76
2022/10/12 10:21:56;;;;;;;8.77;3.83;;;;;;;;;;4953319;28;20063;-76
2022/10/12 10:24:28;;;;;;;13.23;3.67;;;;;;;;;;4954871;28;20059;-76
2022/10/12 10:26:56;;;;;;;14.25;3.92;;;;;;;;;;4969251;28;20047;-77
2022/10/12 10:29:42;;;;;;;12.13;3.80;;;;;;;;;;4975123;28;20051;-80
2022/10/12 10:32:28;;;;;;;8.27;3.97;;;;;;;;;;4955665;28;20058;-77
2022/10/12 10:35:13;;;;;;;13.77;3.70;;;;;;;;;;4955076;29;20081;-77
2022/10/12 10:37:58;;;;;;;10.90;3.83;;;;;;;;;;4954586;29;20073;-76
2022/10/12 10:40:49;;;;;;;10.57;3.90;;;;;;;;;;4968693;28;20059;-76
2022/10/12 10:43:34;;;;;;;9.02;3.70;;;;;;;;;;4974314;28;20041;-76
2022/10/12 10:46:37;;;;;;;11.68;4.45;;;;;;;;;;4974346;28;20087;-76
2022/10/12 10:49:06;;;;;;;11.98;4.20;;;;;;;;;;4974354;28;20474;-76
2022/10/12 10:51:44;;;;;;;12.07;3.78;;;;;;;;;;4973874;28;20068;-76
2022/10/12 10:54:25;;;;;;;13.10;4.25;;;;;;;;;;4970604;28;20077;-76
2022/10/12 10:56:52;;;;;;;9.15;3.80;;;;;;;;;;4954644;29;20053;-76
2022/10/12 10:59:20;;;;;;;13.15;4.00;;;;;;;;;;4953163;28;20044;-76
2022/10/12 11:01:58;;;;;;;10.73;3.90;;;;;;;;;;4954519;28;20429;-76
2022/10/12 11:04:31;;;;;;;13.25;4.50;;;;;;;;;;4953452;28;20182;-76
2022/10/12 11:07:01;;;;;;;10.85;3.65;;;;;;;;;;4955243;28;20051;-76
2022/10/12 11:09:28;;;;;;;11.27;4.13;;;;;;;;;;4962939;28;20043;-76
2022/10/12 11:12:01;;;;;;;11.68;3.60;;;;;;;;;;4954512;28;20051;-76
2022/10/12 11:14:29;;;;;;;11.68;3.55;;;;;;;;;;4965397;28;20405;-76
2022/10/12 11:17:01;;;;;;;11.55;3.38;;;;;;;;;;4973279;28;20571;-76
2022/10/12 11:19:41;;;;;;;12.25;3.85;;;;;;;;;;4972304;28;20497;-76
2022/10/12 11:22:16;;;;;;;10.90;3.17;;;;;;;;;;4973203;28;20462;-76
2022/10/12 11:24:45;;;;;;;9.85;3.38;;;;;;;;;;4961309;28;20048;-76
2022/10/12 11:27:34;;;;;;;12.35;3.75;;;;;;;;;;4954279;29;20047;-76
2022/10/12 11:30:01;;;;;;;11.18;2.75;;;;;;;;;;4950765;28;20513;-76
2022/10/12 11:32:36;;;;;;;7.50;2.60;;;;;;;;;;4954413;28;20134;-76
2022/10/12 11:35:04;;;;;;;9.77;2.80;;;;;;;;;;4954050;28;20043;-76
2022/10/12 11:37:37;;;;;;;10.88;3.28;;;;;;;;;;4952701;28;20047;-76
2022/10/12 11:40:06;;;;;;;11.05;3.03;;;;;;;;;;4953961;28;20051;-76
2022/10/12 11:42:32;;;;;;;8.20;3.13;;;;;;;;;;4953952;28;20082;-76
2022/10/12 11:45:01;;;;;;;8.13;2.78;;;;;;;;;;4971964;28;20147;-76
2022/10/12 11:47:30;;;;;;;12.13;3.88;;;;;;;;;;4973440;28;20123;-76
2022/10/12 11:50:02;;;;;;;9.23;3.67;;;;;;;;;;4972985;28;20051;-77
2022/10/12 11:52:35;;;;;;;9.68;3.60;;;;;;;;;;4953422;29;20047;-76
2022/10/12 11:55:16;;;;;;;11.10;3.28;;;;;;;;;;4953388;28;20508;-76
2022/10/12 11:57:42;;;;;;;10.57;3.17;;;;;;;;;;4959914;28;20082;-76
2022/10/12 12:00:33;;;;;;;11.50;3.85;;;;;;;;;;4972944;28;20153;-76
2022/10/12 12:03:05;;;;;;;13.27;3.38;;;;;;;;;;4971583;28;20095;-76
2022/10/12 12:05:31;;;;;;;8.45;3.20;;;;;;;;;;4966718;28;20122;-76
2022/10/12 12:07:57;;;;;;;9.45;3.13;;;;;;;;;;4958951;28;20575;-76
2022/10/12 12:10:27;;;;;;;9.13;3.15;;;;;;;;;;4972981;28;20051;-76
2022/10/12 12:13:12;;;;;;;11.20;3.10;;;;;;;;;;4972810;28;20132;-76
2022/10/12 12:15:38;;;;;;;7.82;2.65;;;;;;;;;;4975256;28;20055;-76
2022/10/12 12:18:18;;;;;;;6.70;3.00;;;;;;;;;;4981305;28;20043;-77
2022/10/12 12:20:45;;;;;;;8.55;3.00;;;;;;;;;;4969863;28;20105;-76
2022/10/12 12:23:23;;;;;;;11.85;3.40;;;;;;;;;;4959282;28;20055;-77
2022/10/12 12:26:08;;;;;;;9.88;3.15;;;;;;;;;;4955616;28;20102;-76
2022/10/12 12:28:36;;;;;;;7.20;3.30;;;;;;;;;;4955439;28;20044;-76
2022/10/12 12:31:03;;;;;;;11.40;3.55;;;;;;;;;;4953470;29;20039;-76
2022/10/12 12:33:29;;;;;;;11.45;3.13;;;;;;;;;;4953155;29;20046;-77
2022/10/12 12:36:00;;;;;;;12.48;4.00;;;;;;;;;;4953490;28;20101;-76
2022/10/12 12:38:28;;;;;;;11.55;3.15;;;;;;;;;;4953329;29;20445;-77
2022/10/12 12:40:57;;;;;;;10.57;2.92;;;;;;;;;;4954448;29;20109;-78
2022/10/12 12:43:29;;;;;;;8.82;2.53;;;;;;;;;;4952865;29;20039;-78
2022/10/12 12:45:55;;;;;;;9.55;2.92;;;;;;;;;;4952864;28;20130;-78
2022/10/12 12:48:40;;;;;;;11.20;3.17;;;;;;;;;;4952587;28;20394;-78
2022/10/12 12:51:10;;;;;;;10.40;2.90;;;;;;;;;;4969943;28;20130;-78
2022/10/12 12:53:38;;;;;;;8.68;2.80;;;;;;;;;;4972784;28;20047;-78
2022/10/12 12:56:04;;;;;;;9.02;2.83;;;;;;;;;;4972148;28;20383;-77
2022/10/12 12:58:36;;;;;;;7.53;3.35;;;;;;;;;;4954839;28;20051;-77
2022/10/12 13:01:08;;;;;;;26.25;7.50;;;;;;;;;;4963541;28;20035;-79
2022/10/12 13:03:34;;;;;;;12.40;4.07;;;;;;;;;;4970877;28;20486;-79
2022/10/12 13:06:19;;;;;;;23.13;6.95;;;;;;;;;;5053734;28;20510;-79
2022/10/12 13:09:00;;;;;;;9.60;3.00;;;;;;;;;;5073337;28;20047;-79
2022/10/12 13:11:45;;;;;;;8.02;3.13;;;;;;;;;;5051848;28;20122;-79
2022/10/12 13:14:24;;;;;;;10.43;2.65;;;;;;;;;;4952688;28;20043;-80
2022/10/12 13:17:03;;;;;;;11.18;3.30;;;;;;;;;;4951266;28;20047;-80
2022/10/12 13:19:31;;;;;;;10.77;4.13;;;;;;;;;;4952812;28;20047;-80
2022/10/12 13:22:02;;;;;;;8.93;3.47;;;;;;;;;;4952510;28;20055;-80
2022/10/12 13:24:37;;;;;;;19.98;6.82;;;;;;;;;;4953017;28;20051;-79
2022/10/12 13:27:17;;;;;;;10.85;3.40;;;;;;;;;;4951043;28;20054;-79
2022/10/12 13:29:53;;;;;;;16.50;5.68;;;;;;;;;;4952422;28;20054;-79
2022/10/12 13:32:29;;;;;;;13.60;3.95;;;;;;;;;;4959236;28;20507;-80
2022/10/12 13:34:56;;;;;;;9.55;2.85;;;;;;;;;;4952778;28;20097;-79
2022/10/12 13:37:29;;;;;;;8.30;3.33;;;;;;;;;;4952345;28;20118;-79
2022/10/12 13:39:57;;;;;;;9.13;3.15;;;;;;;;;;4952363;28;20047;-78
2022/10/12 13:42:26;;;;;;;8.05;2.67;;;;;;;;;;4935087;29;20047;-79
2022/10/12 13:44:52;;;;;;;8.05;2.83;;;;;;;;;;4950670;28;20082;-79
2022/10/12 13:47:21;;;;;;;8.05;2.97;;;;;;;;;;4950666;29;20411;-79
2022/10/12 13:49:47;;;;;;;8.77;3.30;;;;;;;;;;4961331;28;20051;-78
2022/10/12 13:52:13;;;;;;;8.57;2.78;;;;;;;;;;4970053;28;20520;-78
2022/10/12 13:54:40;;;;;;;6.18;2.85;;;;;;;;;;4973489;28;20082;-78
2022/10/12 13:57:06;;;;;;;8.40;3.40;;;;;;;;;;4974689;28;20097;-79
2022/10/12 13:59:36;;;;;;;8.07;3.53;;;;;;;;;;4974626;28;20131;-78
2022/10/12 14:02:02;;;;;;;9.70;3.50;;;;;;;;;;4965794;28;20055;-78
2022/10/12 14:04:33;;;;;;;10.52;3.50;;;;;;;;;;4964237;28;20055;-80
2022/10/12 14:07:00;;;;;;;8.02;3.03;;;;;;;;;;4963946;28;20047;-81
2022/10/12 14:09:28;;;;;;;17.77;4.53;;;;;;;;;;4962208;28;20053;-81
2022/10/12 14:11:54;;;;;;;10.32;3.22;;;;;;;;;;4961154;28;20082;-80
2022/10/12 14:14:33;;;;;;;8.35;3.22;;;;;;;;;;4955160;28;20054;-82
2022/10/12 14:16:59;;;;;;;13.82;3.80;;;;;;;;;;4955952;28;20490;-82
2022/10/12 14:19:41;;;;;;;16.25;4.10;;;;;;;;;;4956816;29;20047;-80
2022/10/12 14:22:07;;;;;;;12.02;4.07;;;;;;;;;;4974470;28;20369;-78
2022/10/12 14:24:35;;;;;;;12.13;3.22;;;;;;;;;;4970245;28;20140;-78
2022/10/12 14:27:02;;;;;;;8.15;3.30;;;;;;;;;;4954645;28;20047;-80
2022/10/12 14:29:42;;;;;;;7.43;3.00;;;;;;;;;;4958036;28;20066;-79
2022/10/12 14:32:11;;;;;;;10.68;3.50;;;;;;;;;;4973404;28;20046;-78
2022/10/12 14:34:40;;;;;;;8.30;3.10;;;;;;;;;;4973965;28;20421;-78
2022/10/12 14:37:20;;;;;;;10.35;4.18;;;;;;;;;;4974142;28;20054;-80
2022/10/12 14:39:48;;;;;;;8.38;3.20;;;;;;;;;;4974143;28;20042;-78
2022/10/12 14:42:29;;;;;;;10.15;3.53;;;;;;;;;;4963694;28;20061;-77
2022/10/12 14:44:55;;;;;;;11.40;3.90;;;;;;;;;;4954499;28;20058;-78